createdAt,value
2022-09-23T00:00:59.882Z,100341.66
2022-09-23T00:03:28.816Z,100338.91
2022-09-23T00:05:59.513Z,100338.91
2022-09-23T00:08:26.141Z,100330.72
2022-09-23T00:10:52.550Z,100333.16
2022-09-23T00:13:19.072Z,100331.59
2022-09-23T00:15:46.728Z,100331.34
2022-09-23T00:18:13.394Z,100330.97
2022-09-23T00:20:40.468Z,100335.06
2022-09-23T00:23:06.926Z,100333.72
2022-09-23T00:25:33.871Z,100334.81
2022-09-23T00:28:00.382Z,100333.16
2022-09-23T00:30:27.376Z,100330.16
2022-09-23T00:32:54.058Z,100332.66
2022-09-23T00:35:20.629Z,100325.81
2022-09-23T00:37:47.080Z,100332.41
2022-09-23T00:40:13.636Z,100332.97
2022-09-23T00:42:52.562Z,100334.88
2022-09-23T00:45:19.477Z,100326.22
2022-09-23T00:47:55.196Z,100325.13
2022-09-23T00:50:27.424Z,100324.28
2022-09-23T00:52:56.795Z,100329.47
2022-09-23T00:55:27.632Z,100327.03
2022-09-23T00:57:57.033Z,100328.28
2022-09-23T01:00:23.745Z,100325.66
2022-09-23T01:02:51.277Z,100326.59
2022-09-23T01:05:18.809Z,100328.16
2022-09-23T01:07:46.046Z,100326.13
2022-09-23T01:10:14.664Z,100326.97
2022-09-23T01:13:11.023Z,100323.69
2022-09-23T01:15:48.773Z,100314.34
2022-09-23T01:18:43.543Z,100318.56
2022-09-23T01:21:22.673Z,100318.31
2022-09-23T01:24:03.131Z,100319.75
2022-09-23T01:26:54.598Z,100322.50
2022-09-23T01:29:29.903Z,100318.06
2022-09-23T01:32:19.596Z,100319.38
2022-09-23T01:34:51.020Z,100316.50
2022-09-23T01:37:38.206Z,100322.28
2022-09-23T01:40:15.503Z,100315.72
2022-09-23T01:42:42.813Z,100318.13
2022-09-23T01:45:20.426Z,100310.91
2022-09-23T01:48:04.899Z,100308.91
2022-09-23T01:50:54.174Z,100313.44
2022-09-23T01:53:49.606Z,100317.50
2022-09-23T01:56:31.327Z,100315.00
2022-09-23T01:59:04.233Z,100317.03
2022-09-23T02:01:39.341Z,100313.47
2022-09-23T02:04:13.378Z,100310.31
2022-09-23T02:06:43.382Z,100311.63
2022-09-23T02:09:12.921Z,100321.09
2022-09-23T02:11:42.988Z,100309.28
2022-09-23T02:14:18.968Z,100310.50
2022-09-23T02:16:48.692Z,100312.28
2022-09-23T02:19:28.369Z,100311.31
2022-09-23T02:22:06.944Z,100314.53
2022-09-23T02:24:35.026Z,100312.84
2022-09-23T02:27:19.719Z,100314.75
2022-09-23T02:29:55.550Z,100318.34
2022-09-23T02:32:54.449Z,100320.03
2022-09-23T02:35:29.458Z,100309.47
2022-09-23T02:38:35.040Z,100308.97
2022-09-23T02:41:15.082Z,100312.34
2022-09-23T02:43:59.750Z,100312.44
2022-09-23T02:46:26.915Z,100314.16
2022-09-23T02:48:56.818Z,100315.47
2022-09-23T02:51:25.727Z,100318.84
2022-09-23T02:53:57.117Z,100312.47
2022-09-23T02:56:23.658Z,100319.31
2022-09-23T02:58:52.337Z,100313.56
2022-09-23T03:01:39.321Z,100309.63
2022-09-23T03:04:17.236Z,100315.50
2022-09-23T03:07:06.740Z,100309.41
2022-09-23T03:09:57.361Z,100314.69
2022-09-23T03:12:36.419Z,100319.94
2022-09-23T03:15:12.358Z,100322.34
2022-09-23T03:17:46.913Z,100318.97
2022-09-23T03:20:23.466Z,100314.78
2022-09-23T03:22:53.956Z,100322.59
2022-09-23T03:25:23.897Z,100318.88
2022-09-23T03:27:50.637Z,100310.13
2022-09-23T03:30:18.199Z,100310.22
2022-09-23T03:32:45.637Z,100309.50
2022-09-23T03:35:13.098Z,100312.75
2022-09-23T03:37:43.220Z,100314.19
2022-09-23T03:40:25.525Z,100314.53
2022-09-23T03:42:53.985Z,100306.56
2022-09-23T03:45:23.748Z,100308.59
2022-09-23T03:47:50.216Z,100300.19
2022-09-23T03:50:17.312Z,100294.75
2022-09-23T03:52:44.464Z,100301.59
2022-09-23T03:55:11.274Z,100300.88
2022-09-23T03:57:38.034Z,100307.78
2022-09-23T04:00:06.850Z,100307.91
2022-09-23T04:02:33.800Z,100312.91
2022-09-23T04:05:01.116Z,100304.28
2022-09-23T04:07:27.630Z,100308.19
2022-09-23T04:09:54.296Z,100306.84
2022-09-23T04:12:20.716Z,100304.28
2022-09-23T04:14:47.248Z,100305.31
2022-09-23T04:17:13.973Z,100313.00
2022-09-23T04:19:40.868Z,100307.50
2022-09-23T04:22:08.009Z,100308.31
2022-09-23T04:24:34.568Z,100306.50
2022-09-23T04:27:01.090Z,100307.78
2022-09-23T04:29:27.641Z,100309.50
2022-09-23T04:31:54.520Z,100312.03
2022-09-23T04:34:21.596Z,100318.38
2022-09-23T04:36:48.894Z,100314.25
2022-09-23T04:39:16.070Z,100318.97
2022-09-23T04:41:43.572Z,100322.34
2022-09-23T04:44:14.585Z,100315.41
2022-09-23T04:46:41.884Z,100312.88
2022-09-23T04:49:08.651Z,100315.59
2022-09-23T04:51:35.239Z,100306.66
2022-09-23T04:54:01.782Z,100310.06
2022-09-23T04:56:29.743Z,100310.75
2022-09-23T04:59:01.720Z,100305.47
2022-09-23T05:01:31.009Z,100312.94
2022-09-23T05:04:03.169Z,100310.38
2022-09-23T05:06:31.548Z,100312.34
2022-09-23T05:08:58.781Z,100312.94
2022-09-23T05:11:26.088Z,100309.88
2022-09-23T05:13:54.010Z,100308.06
2022-09-23T05:16:22.734Z,100305.72
2022-09-23T05:18:50.172Z,100308.56
2022-09-23T05:21:18.302Z,100302.81
2022-09-23T05:23:49.288Z,100310.47
2022-09-23T05:26:16.120Z,100317.34
2022-09-23T05:28:42.701Z,100312.19
2022-09-23T05:31:20.024Z,100308.72
2022-09-23T05:33:49.965Z,100308.13
2022-09-23T05:36:19.910Z,100310.88
2022-09-23T05:38:46.441Z,100318.06
2022-09-23T05:41:13.920Z,100315.97
2022-09-23T05:43:41.124Z,100306.78
2022-09-23T05:46:16.041Z,100326.06
2022-09-23T05:48:43.210Z,100325.63
2022-09-23T05:51:13.965Z,100326.63
2022-09-23T05:53:41.002Z,100323.88
2022-09-23T05:56:07.932Z,100331.09
2022-09-23T05:58:34.688Z,100334.09
2022-09-23T06:01:01.189Z,100338.88
2022-09-23T06:03:27.651Z,100334.81
2022-09-23T06:05:55.029Z,100334.69
2022-09-23T06:08:23.560Z,100335.31
2022-09-23T06:10:54.456Z,100330.94
2022-09-23T06:13:21.364Z,100338.69
2022-09-23T06:15:48.012Z,100335.47
2022-09-23T06:18:14.571Z,100334.63
2022-09-23T06:20:41.027Z,100333.09
2022-09-23T06:23:10.607Z,100341.63
2022-09-23T06:25:40.783Z,100334.16
2022-09-23T06:28:12.228Z,100336.38
2022-09-23T06:30:42.544Z,100341.50
2022-09-23T06:33:10.095Z,100339.66
2022-09-23T06:35:36.602Z,100332.25
2022-09-23T06:38:04.995Z,100339.34
2022-09-23T06:40:31.672Z,100340.75
2022-09-23T06:42:59.857Z,100335.06
2022-09-23T06:45:27.297Z,100340.19
2022-09-23T06:47:58.698Z,100336.09
2022-09-23T06:50:26.472Z,100338.09
2022-09-23T06:52:56.697Z,100338.34
2022-09-23T06:55:24.646Z,100346.16
2022-09-23T06:57:51.208Z,100339.47
2022-09-23T07:00:18.176Z,100345.38
2022-09-23T07:02:44.891Z,100347.56
2022-09-23T07:05:11.749Z,100348.16
2022-09-23T07:07:43.606Z,100345.34
2022-09-23T07:10:11.498Z,100350.41
2022-09-23T07:12:38.044Z,100355.44
2022-09-23T07:15:04.894Z,100355.56
2022-09-23T07:17:31.393Z,100354.47
2022-09-23T07:20:00.555Z,100366.47
2022-09-23T07:22:30.423Z,100362.66
2022-09-23T07:25:01.248Z,100360.88
2022-09-23T07:27:27.834Z,100363.69
2022-09-23T07:29:55.193Z,100367.06
2022-09-23T07:32:23.085Z,100364.69
2022-09-23T07:34:50.104Z,100361.50
2022-09-23T07:37:17.950Z,100360.72
2022-09-23T07:39:45.450Z,100373.34
2022-09-23T07:42:13.439Z,100374.28
2022-09-23T07:44:47.817Z,100373.69
2022-09-23T07:47:14.655Z,100370.66
2022-09-23T07:49:41.534Z,100371.84
2022-09-23T07:52:08.021Z,100378.34
2022-09-23T07:54:34.912Z,100365.19
2022-09-23T07:57:01.591Z,100373.94
2022-09-23T07:59:28.158Z,100365.41
2022-09-23T08:01:56.812Z,100372.16
2022-09-23T08:04:26.682Z,100351.31
2022-09-23T08:06:58.894Z,100370.91
2022-09-23T08:09:28.474Z,100388.88
2022-09-23T08:11:55.410Z,100395.69
2022-09-23T08:14:22.499Z,100398.72
2022-09-23T08:16:49.493Z,100409.63
2022-09-23T08:19:16.721Z,100409.03
2022-09-23T08:21:43.592Z,100413.06
2022-09-23T08:24:14.666Z,100398.59
2022-09-23T08:26:41.208Z,100391.25
2022-09-23T08:29:10.163Z,100376.75
2022-09-23T08:31:36.837Z,100362.88
2022-09-23T08:34:04.843Z,100345.16
2022-09-23T08:36:31.950Z,100331.25
2022-09-23T08:38:58.409Z,100328.22
2022-09-23T08:41:58.824Z,100322.94
2022-09-23T08:44:44.400Z,100307.44
2022-09-23T08:47:13.637Z,100309.53
2022-09-23T08:49:45.743Z,100309.50
2022-09-23T08:52:18.476Z,100299.06
2022-09-23T08:54:44.930Z,100308.59
2022-09-23T08:57:24.495Z,100312.63
2022-09-23T08:59:51.198Z,100313.34
2022-09-23T09:02:19.469Z,100316.13
2022-09-23T09:04:49.909Z,100313.03
2022-09-23T09:07:37.633Z,100306.16
2022-09-23T09:10:20.591Z,100305.06
2022-09-23T09:12:50.392Z,100298.75
2022-09-23T09:15:24.852Z,100302.00
2022-09-23T09:18:21.408Z,100291.06
2022-09-23T09:21:00.753Z,100285.97
2022-09-23T09:23:40.936Z,100283.09
2022-09-23T09:26:11.744Z,100280.28
2022-09-23T09:28:42.082Z,100283.22
2022-09-23T09:31:45.109Z,100281.56
2022-09-23T09:34:40.719Z,100284.31
2022-09-23T09:37:13.716Z,100283.44
2022-09-23T09:39:40.808Z,100282.72
2022-09-23T09:42:07.562Z,100289.81
2022-09-23T09:44:48.400Z,100290.38
2022-09-23T09:47:28.639Z,100291.66
2022-09-23T09:50:11.349Z,100292.06
2022-09-23T09:52:44.071Z,100287.16
2022-09-23T09:55:13.666Z,100281.22
2022-09-23T09:58:06.192Z,100277.34
2022-09-23T10:00:43.005Z,100277.25
2022-09-23T10:03:15.140Z,100278.34
2022-09-23T10:05:44.973Z,100276.56
2022-09-23T10:08:27.347Z,100273.22
2022-09-23T10:11:17.185Z,100255.59
2022-09-23T10:14:12.850Z,100262.91
2022-09-23T10:16:41.581Z,100258.31
2022-09-23T10:19:22.734Z,100261.13
2022-09-23T10:21:59.319Z,100258.09
2022-09-23T10:24:30.101Z,100261.03
2022-09-23T10:27:08.893Z,100253.06
2022-09-23T10:29:45.869Z,100246.25
2022-09-23T10:32:31.171Z,100258.53
2022-09-23T10:35:04.637Z,100256.66
2022-09-23T10:37:38.886Z,100240.44
2022-09-23T10:40:34.581Z,100237.38
2022-09-23T10:43:24.364Z,100237.84
2022-09-23T10:46:09.537Z,100233.31
2022-09-23T10:49:12.073Z,100235.72
2022-09-23T10:51:57.128Z,100239.44
2022-09-23T10:54:56.396Z,100242.00
2022-09-23T10:57:38.159Z,100237.53
2022-09-23T11:00:23.683Z,100240.28
2022-09-23T11:03:21.353Z,100223.94
2022-09-23T11:06:08.469Z,100230.69
2022-09-23T11:08:40.986Z,100233.97
2022-09-23T11:11:39.517Z,100232.34
2022-09-23T11:14:22.956Z,100229.16
2022-09-23T11:16:58.243Z,100239.09
2022-09-23T11:19:56.630Z,100234.25
2022-09-23T11:22:54.234Z,100231.72
2022-09-23T11:25:43.533Z,100232.94
2022-09-23T11:28:52.537Z,100224.06
2022-09-23T11:31:37.608Z,100222.16
2022-09-23T11:34:13.355Z,100217.78
2022-09-23T11:36:43.714Z,100215.66
2022-09-23T11:39:19.468Z,100215.53
2022-09-23T11:41:46.646Z,100212.31
2022-09-23T11:44:23.134Z,100214.47
2022-09-23T11:47:19.573Z,100211.53
2022-09-23T11:49:58.134Z,100215.16
2022-09-23T11:52:24.666Z,100218.09
2022-09-23T11:54:52.189Z,100198.16
2022-09-23T11:57:43.560Z,100206.53
2022-09-23T12:00:19.040Z,100209.03
2022-09-23T12:03:05.721Z,100207.69
2022-09-23T12:05:40.235Z,100213.16
2022-09-23T12:08:15.753Z,100208.16
2022-09-23T12:10:54.305Z,100203.91
2022-09-23T12:13:42.062Z,100195.47
2022-09-23T12:16:25.738Z,100192.84
2022-09-23T12:19:18.333Z,100183.63
2022-09-23T12:22:24.157Z,100183.50
2022-09-23T12:25:14.283Z,100186.97
2022-09-23T12:27:45.798Z,100185.16
2022-09-23T12:30:20.033Z,100185.41
2022-09-23T12:32:46.854Z,100178.06
2022-09-23T12:35:35.752Z,100180.16
2022-09-23T12:38:05.181Z,100176.13
2022-09-23T12:40:34.983Z,100183.13
2022-09-23T12:43:04.974Z,100177.22
2022-09-23T12:45:35.003Z,100177.22
2022-09-23T12:48:05.042Z,100172.56
2022-09-23T12:51:03.863Z,100176.25
2022-09-23T12:53:33.643Z,100175.34
2022-09-23T12:56:02.256Z,100172.78
2022-09-23T12:58:57.593Z,100169.75
2022-09-23T13:01:25.943Z,100164.34
2022-09-23T13:04:13.287Z,100157.66
2022-09-23T13:06:42.104Z,100151.34
2022-09-23T13:09:15.017Z,100161.09
2022-09-23T13:11:43.608Z,100155.97
2022-09-23T13:14:13.360Z,100151.81
2022-09-23T13:16:43.951Z,100162.50
2022-09-23T13:19:35.385Z,100149.75
2022-09-23T13:22:09.096Z,100154.56
2022-09-23T13:24:47.637Z,100151.59
2022-09-23T13:27:33.584Z,100148.31
2022-09-23T13:30:04.848Z,100145.16
2022-09-23T13:32:35.174Z,100135.28
2022-09-23T13:35:24.375Z,100134.91
2022-09-23T13:37:50.871Z,100128.97
2022-09-23T13:40:19.558Z,100130.59
2022-09-23T13:42:59.877Z,100132.22
2022-09-23T13:45:28.012Z,100129.25
2022-09-23T13:48:00.515Z,100122.22
2022-09-23T13:50:29.519Z,100119.50
2022-09-23T13:53:01.455Z,100126.94
2022-09-23T13:55:37.365Z,100126.22
2022-09-23T13:58:20.521Z,100120.63
2022-09-23T14:00:48.031Z,100122.28
2022-09-23T14:03:45.545Z,100119.41
2022-09-23T14:06:17.144Z,100120.91
2022-09-23T14:08:50.394Z,100118.00
2022-09-23T14:11:18.619Z,100109.00
2022-09-23T14:13:47.085Z,100108.34
2022-09-23T14:16:17.302Z,100109.69
2022-09-23T14:18:49.629Z,100110.88
2022-09-23T14:21:36.396Z,100102.69
2022-09-23T14:24:30.979Z,100107.09
2022-09-23T14:27:06.386Z,100108.50
2022-09-23T14:29:38.089Z,100100.41
2022-09-23T14:32:21.339Z,100099.75
2022-09-23T14:35:00.936Z,100101.81
2022-09-23T14:37:53.556Z,100100.94
2022-09-23T14:40:27.467Z,100092.59
2022-09-23T14:43:27.963Z,100104.16
2022-09-23T14:45:56.567Z,100099.19
2022-09-23T14:48:28.729Z,100103.72
2022-09-23T14:50:58.122Z,100100.00
2022-09-23T14:53:41.397Z,100096.88
2022-09-23T14:56:11.480Z,100098.06
2022-09-23T14:58:57.811Z,100095.91
2022-09-23T15:01:45.811Z,100093.56
2022-09-23T15:04:17.006Z,100087.91
2022-09-23T15:06:48.396Z,100091.59
2022-09-23T15:09:26.896Z,100091.00
2022-09-23T15:11:58.665Z,100085.53
2022-09-23T15:14:38.189Z,100082.06
2022-09-23T15:17:11.559Z,100089.63
2022-09-23T15:19:38.178Z,100079.50
2022-09-23T15:22:07.601Z,100080.72
2022-09-23T15:24:36.618Z,100079.81
2022-09-23T15:27:10.795Z,100077.03
2022-09-23T15:29:37.408Z,100074.56
2022-09-23T15:32:06.571Z,100072.56
2022-09-23T15:34:33.291Z,100069.22
2022-09-23T15:36:59.751Z,100069.94
2022-09-23T15:39:35.496Z,100067.31
2022-09-23T15:42:03.001Z,100061.66
2022-09-23T15:44:29.937Z,100073.19
2022-09-23T15:46:59.169Z,100071.34
2022-09-23T15:49:29.871Z,100070.53
2022-09-23T15:51:59.307Z,100065.03
2022-09-23T15:54:25.747Z,100059.72
2022-09-23T15:56:52.355Z,100060.88
2022-09-23T15:59:19.141Z,100063.75
2022-09-23T16:01:45.983Z,100061.22
2022-09-23T16:04:15.620Z,100057.25
2022-09-23T16:06:44.480Z,100063.06
2022-09-23T16:09:13.355Z,100060.06
2022-09-23T16:11:44.391Z,100057.75
2022-09-23T16:14:13.884Z,100062.25
2022-09-23T16:16:42.422Z,100062.75
2022-09-23T16:19:09.032Z,100061.69
2022-09-23T16:21:35.523Z,100064.38
2022-09-23T16:24:03.531Z,100060.16
2022-09-23T16:26:31.972Z,100063.66
2022-09-23T16:28:59.546Z,100066.66
2022-09-23T16:31:29.537Z,100068.75
2022-09-23T16:33:56.586Z,100068.44
2022-09-23T16:36:31.815Z,100065.25
2022-09-23T16:38:59.962Z,100066.88
2022-09-23T16:41:33.862Z,100064.16
2022-09-23T16:44:02.805Z,100061.41
2022-09-23T16:46:29.745Z,100058.09
2022-09-23T16:48:57.582Z,100057.16
2022-09-23T16:51:33.286Z,100049.28
2022-09-23T16:54:00.041Z,100049.72
2022-09-23T16:56:29.055Z,100046.84
2022-09-23T16:58:56.143Z,100050.06
2022-09-23T17:01:46.710Z,100051.84
2022-09-23T17:04:14.518Z,100046.97
2022-09-23T17:06:50.067Z,100049.97
2022-09-23T17:09:18.816Z,100046.53
2022-09-23T17:11:47.758Z,100042.00
2022-09-23T17:14:15.605Z,100041.47
2022-09-23T17:16:42.265Z,100049.06
2022-09-23T17:19:11.514Z,100048.22
2022-09-23T17:21:38.037Z,100050.75
2022-09-23T17:24:05.029Z,100054.38
2022-09-23T17:26:31.569Z,100047.41
2022-09-23T17:28:59.372Z,100049.34
2022-09-23T17:31:26.105Z,100058.31
2022-09-23T17:33:53.050Z,100053.69
2022-09-23T17:36:20.133Z,100051.44
2022-09-23T17:38:48.188Z,100055.06
2022-09-23T17:41:15.325Z,100052.94
2022-09-23T17:43:41.937Z,100059.56
2022-09-23T17:46:10.682Z,100061.75
2022-09-23T17:48:39.365Z,100051.56
2022-09-23T17:51:08.342Z,100061.06
2022-09-23T17:53:37.209Z,100058.25
2022-09-23T17:56:16.832Z,100063.03
2022-09-23T17:58:44.121Z,100066.06
2022-09-23T18:01:19.543Z,100059.09
2022-09-23T18:03:47.413Z,100061.44
2022-09-23T18:06:17.580Z,100060.47
2022-09-23T18:08:45.659Z,100061.75
2022-09-23T18:11:19.801Z,100055.44
2022-09-23T18:13:54.126Z,100058.94
2022-09-23T18:16:22.487Z,100062.75
2022-09-23T18:18:53.183Z,100056.88
2022-09-23T18:21:20.827Z,100065.00
2022-09-23T18:23:47.748Z,100069.34
2022-09-23T18:26:19.630Z,100075.81
2022-09-23T18:28:46.287Z,100082.06
2022-09-23T18:31:13.435Z,100077.19
2022-09-23T18:33:40.072Z,100078.47
2022-09-23T18:36:07.860Z,100082.94
2022-09-23T18:38:34.721Z,100072.16
2022-09-23T18:41:01.646Z,100075.66
2022-09-23T18:43:39.393Z,100076.72
2022-09-23T18:46:11.732Z,100077.56
2022-09-23T18:48:56.876Z,100075.09
2022-09-23T18:51:25.747Z,100074.69
2022-09-23T18:53:57.472Z,100079.53
2022-09-23T18:56:29.712Z,100082.72
2022-09-23T18:58:56.298Z,100083.41
2022-09-23T19:01:23.754Z,100085.91
2022-09-23T19:03:57.032Z,100084.22
2022-09-23T19:06:24.457Z,100077.09
2022-09-23T19:08:52.489Z,100082.13
2022-09-23T19:11:19.552Z,100075.88
2022-09-23T19:13:46.317Z,100079.81
2022-09-23T19:16:14.983Z,100078.84
2022-09-23T19:18:43.505Z,100080.50
2022-09-23T19:21:12.727Z,100070.19
2022-09-23T19:23:40.037Z,100074.19
2022-09-23T19:26:11.233Z,100075.28
2022-09-23T19:28:37.921Z,100071.53
2022-09-23T19:31:11.897Z,100085.69
2022-09-23T19:33:41.138Z,100088.25
2022-09-23T19:36:10.691Z,100087.97
2022-09-23T19:38:38.336Z,100084.31
2022-09-23T19:41:07.851Z,100086.16
2022-09-23T19:43:37.842Z,100091.75
2022-09-23T19:46:05.653Z,100085.16
2022-09-23T19:48:32.371Z,100083.50
2022-09-23T19:50:59.020Z,100080.66
2022-09-23T19:53:28.152Z,100083.13
2022-09-23T19:55:56.075Z,100077.25
2022-09-23T19:58:23.177Z,100077.94
2022-09-23T20:00:49.660Z,100071.94
2022-09-23T20:03:17.632Z,100077.94
2022-09-23T20:05:44.060Z,100074.59
2022-09-23T20:08:10.492Z,100074.75
2022-09-23T20:10:39.378Z,100074.91
2022-09-23T20:13:05.830Z,100077.03
2022-09-23T20:15:32.364Z,100068.66
2022-09-23T20:17:58.765Z,100073.28
2022-09-23T20:20:25.159Z,100066.06
2022-09-23T20:22:54.282Z,100065.13
2022-09-23T20:25:20.938Z,100071.72
2022-09-23T20:27:53.320Z,100062.41
2022-09-23T20:30:20.700Z,100064.72
2022-09-23T20:32:50.768Z,100064.78
2022-09-23T20:35:17.180Z,100065.38
2022-09-23T20:37:44.637Z,100060.13
2022-09-23T20:40:11.147Z,100054.03
2022-09-23T20:42:37.907Z,100057.44
2022-09-23T20:45:06.815Z,100057.00
2022-09-23T20:47:33.346Z,100056.22
2022-09-23T20:49:59.847Z,100052.47
2022-09-23T20:52:26.370Z,100048.75
2022-09-23T20:54:52.940Z,100049.59
2022-09-23T20:57:20.295Z,100052.59
2022-09-23T20:59:46.848Z,100042.84
2022-09-23T21:02:13.316Z,100047.88
2022-09-23T21:04:39.936Z,100046.19
2022-09-23T21:07:07.210Z,100049.84
2022-09-23T21:09:33.740Z,100043.69
2022-09-23T21:12:00.154Z,100048.47
2022-09-23T21:14:26.742Z,100048.47
2022-09-23T21:16:55.230Z,100045.94
2022-09-23T21:19:21.714Z,100055.13
2022-09-23T21:21:48.243Z,100047.88
2022-09-23T21:27:04.374Z,100058.78
2022-09-23T21:29:30.817Z,100047.88
2022-09-23T21:31:57.496Z,100053.19
2022-09-23T21:34:28.173Z,100051.66
2022-09-23T21:36:56.624Z,100058.59
2022-09-23T21:39:23.336Z,100059.84
2022-09-23T21:41:51.229Z,100058.44
2022-09-23T21:44:17.856Z,100064.69
2022-09-23T21:46:44.355Z,100061.88
2022-09-23T21:49:11.238Z,100056.28
2022-09-23T21:51:41.036Z,100061.34
2022-09-23T21:54:11.969Z,100058.00
2022-09-23T21:56:38.429Z,100062.44
2022-09-23T21:59:05.696Z,100058.09
2022-09-23T22:01:37.622Z,100061.03
2022-09-23T22:04:10.151Z,100058.22
2022-09-23T22:06:38.276Z,100064.22
2022-09-23T22:09:09.987Z,100063.50
2022-09-23T22:11:56.819Z,100064.78
2022-09-23T22:14:27.503Z,100067.94
2022-09-23T22:16:59.124Z,100067.50
2022-09-23T22:19:27.908Z,100059.84
2022-09-23T22:21:56.166Z,100059.25
2022-09-23T22:24:22.764Z,100055.47
2022-09-23T22:26:49.231Z,100046.69
2022-09-23T22:29:34.847Z,100047.22
2022-09-23T22:32:21.425Z,100046.78
2022-09-23T22:34:52.541Z,100047.75
2022-09-23T22:37:21.337Z,100039.25
2022-09-23T22:39:47.763Z,100038.94
2022-09-23T22:42:14.347Z,100045.38
2022-09-23T22:44:40.891Z,100043.44
2022-09-23T22:47:08.017Z,100038.09
2022-09-23T22:49:34.917Z,100036.28
2022-09-23T22:52:03.106Z,100033.91
2022-09-23T22:54:33.749Z,100036.94
2022-09-23T22:57:05.114Z,100036.69
2022-09-23T22:59:31.804Z,100030.13
2022-09-23T23:01:59.729Z,100024.25
2022-09-23T23:04:26.976Z,100024.25
2022-09-23T23:06:53.951Z,100028.09
2022-09-23T23:09:20.425Z,100021.41
2022-09-23T23:11:47.264Z,100019.59
2022-09-23T23:14:16.140Z,100012.78
2022-09-23T23:16:43.265Z,100019.94
2022-09-23T23:19:13.489Z,100015.56
2022-09-23T23:21:43.382Z,100011.31
2022-09-23T23:24:17.838Z,100011.84
2022-09-23T23:26:45.117Z,100010.06
2022-09-23T23:29:13.147Z,100008.31
2022-09-23T23:31:39.950Z,100010.09
2022-09-23T23:34:08.360Z,100022.72
2022-09-23T23:36:34.899Z,100017.09
2022-09-23T23:39:01.462Z,100020.72
2022-09-23T23:41:28.331Z,100025.81
2022-09-23T23:43:56.682Z,100021.88
2022-09-23T23:46:25.432Z,100021.50
2022-09-23T23:48:52.367Z,100013.56
2022-09-23T23:51:18.937Z,100012.13
2022-09-23T23:53:45.457Z,100012.28
2022-09-23T23:56:14.661Z,100007.13
2022-09-23T23:58:41.363Z,100008.84
